Startpagina
METAR-TAF:

METAR-TAF

Vliegvelden :

Wittering, Engeland

breedte: 52-37N, lengte: 000-28W, hoogte: 84 m

Actueel weer

Dit bericht is 44 minuten geleden gemaakt, om 15:50 UTC
Wind 14 kt uit het westnoordwesten
Temperatuur 6°C
Vochtigheid 61%
Druk 1004 hPa
Zicht 10 km of meer
Verspreide wolken op 1800 ft
buien in de omgeving

METAR: EGXT 261550Z 29014KT 9999 VCSH SCT018 06/M01 Q1004 WHT

Tijdstip: 16:34 (16:34 UTC)

Verwachting

Dit bericht is 3 uur en het 9 minuten geleden gemaakt, om 13:25 UTC
Verwachting geldig van 26 om 15 UTC tot 26 om 18 UTC
Wind 18 kt uit het westnoordwesten met uitschieters tot 28 kt
Zicht 10 km of meer
Verspreide wolken op 2500 ft
Wijzigt naar
van 26 om 16 UTC tot 26 om 18 UTC
Wind 10 kt uit het westen

TAF: EGXT 261325Z 2615/2618 30018G28KT 9999 SCT025 BECMG 2616/2618 28010KT

Waarnemingen en weersverwachtingen van meer dan 4000 vliegvelden (METAR en TAF).

De beschikbare stations zijn de gele en rode punten op de kaart.

Ga met uw muis naar het station om de naam te zien.

Klik dan om waarnemingen en weersverwachtingen te zien.

kaart wijzigen: klik op de groene knoppen met een zwart kruis om in te zoomen, op de groene knop met een streepje om uit te zoomen of op de groene pijlen voor aangrenzende kaarten.


METAR-TAF: